CheckWX is a tool to help pilots better visualize weather data.  It is not intended as a substitute for an official pre-flight weather briefing.

03:05:06 UTC

KANW METAR
Ainsworth Regional Airport
Ainsworth, Nebraska, USA
Current

30 mins ago

KANW 230235Z AUTO 14006KT 10SM CLR 18/13 A3031 RMK AO2 T01840134
Observed
Jul-23 @ 02:35 UTC
Wind
  • 140° at 6 KTS
Visibility
10 SM
Flight Rules
VFR
Cloud Levels
  • Clear skies
Temperature
18°C / 64°F
Dewpoint
13°C / 55°F
Humidity
73%
Altimeter
30.31" Hg
Pressure
1026.42 hPa
Previous

50 mins ago

KANW 230215Z AUTO 15004KT 10SM CLR 18/14 A3031 RMK AO2 T01810140
Observed
Jul-23 @ 02:15 UTC
Wind
  • 150° at 4 KTS
Visibility
10 SM
Flight Rules
VFR
Cloud Levels
  • Clear skies
Temperature
18°C / 64°F
Dewpoint
14°C / 57°F
Humidity
78%
Altimeter
30.31" Hg
Pressure
1026.42 hPa
Previous

1 hour ago

KANW 230155Z AUTO 10005KT 10SM CLR 19/14 A3031 RMK AO2 T01920142
Observed
Jul-23 @ 01:55 UTC
Wind
  • 100° at 5 KTS
Visibility
10 SM
Flight Rules
VFR
Cloud Levels
  • Clear skies
Temperature
19°C / 66°F
Dewpoint
14°C / 57°F
Humidity
73%
Altimeter
30.31" Hg
Pressure
1026.42 hPa